createdAt,value
2022-11-16T00:02:22.758Z,7.90
2022-11-16T00:04:50.741Z,7.80
2022-11-16T00:07:18.568Z,7.80
2022-11-16T00:09:47.030Z,7.70
2022-11-16T00:12:16.752Z,7.70
2022-11-16T00:14:44.506Z,7.70
2022-11-16T00:17:12.499Z,7.70
2022-11-16T00:19:39.532Z,7.80
2022-11-16T00:22:07.785Z,7.90
2022-11-16T00:24:35.798Z,7.90
2022-11-16T00:27:04.573Z,7.70
2022-11-16T00:29:32.569Z,7.70
2022-11-16T00:32:00.566Z,7.70
2022-11-16T00:34:30.972Z,7.60
2022-11-16T00:36:59.105Z,7.60
2022-11-16T00:39:26.569Z,7.60
2022-11-16T00:41:54.672Z,7.40
2022-11-16T00:44:21.513Z,7.50
2022-11-16T00:46:49.365Z,7.70
2022-11-16T00:49:16.609Z,7.60
2022-11-16T00:51:43.525Z,7.60
2022-11-16T00:54:12.729Z,7.60
2022-11-16T00:56:40.167Z,7.50
2022-11-16T00:59:08.460Z,7.50
2022-11-16T01:01:35.864Z,7.50
2022-11-16T01:04:10.884Z,7.50
2022-11-16T01:06:38.509Z,7.50
2022-11-16T01:09:06.640Z,7.40
2022-11-16T01:11:53.394Z,7.40
2022-11-16T01:14:20.592Z,7.40
2022-11-16T01:16:51.456Z,7.40
2022-11-16T01:19:20.558Z,7.50
2022-11-16T01:21:47.686Z,7.50
2022-11-16T01:24:14.635Z,7.40
2022-11-16T01:26:41.587Z,7.40
2022-11-16T01:29:10.155Z,7.40
2022-11-16T01:31:42.614Z,7.50
2022-11-16T01:34:09.719Z,7.50
2022-11-16T01:36:37.751Z,7.60
2022-11-16T01:39:06.107Z,7.60
2022-11-16T01:41:46.049Z,7.70
2022-11-16T01:44:32.882Z,7.70
2022-11-16T01:47:13.839Z,7.70
2022-11-16T01:49:52.980Z,7.60
2022-11-16T01:52:29.977Z,7.50
2022-11-16T01:54:59.063Z,7.50
2022-11-16T01:57:54.671Z,7.60
2022-11-16T02:00:22.821Z,7.60
2022-11-16T02:03:05.550Z,7.60
2022-11-16T02:06:26.878Z,7.60
2022-11-16T02:09:55.028Z,7.70
2022-11-16T02:12:47.601Z,7.80
2022-11-16T02:15:43.306Z,7.90
2022-11-16T02:18:51.547Z,8.00
2022-11-16T02:21:24.849Z,8.10
2022-11-16T02:24:18.472Z,8.10
2022-11-16T02:27:31.968Z,8.20
2022-11-16T02:29:59.018Z,8.20
2022-11-16T02:32:43.954Z,8.20
2022-11-16T02:35:19.911Z,8.20
2022-11-16T02:37:57.269Z,8.20
2022-11-16T02:40:34.680Z,8.20
2022-11-16T02:43:09.162Z,8.20
2022-11-16T02:45:41.841Z,8.30
2022-11-16T02:48:16.871Z,8.30
2022-11-16T02:50:45.283Z,8.40
2022-11-16T02:53:13.029Z,8.30
2022-11-16T02:55:41.044Z,8.40
2022-11-16T02:58:12.355Z,8.40
2022-11-16T03:00:46.731Z,8.30
2022-11-16T03:03:28.589Z,8.30
2022-11-16T03:06:05.421Z,8.30
2022-11-16T03:08:38.271Z,8.20
2022-11-16T03:11:30.392Z,8.10
2022-11-16T03:14:05.573Z,8.10
2022-11-16T03:16:42.449Z,8.00
2022-11-16T03:19:14.864Z,8.00
2022-11-16T03:22:04.366Z,7.90
2022-11-16T03:24:32.236Z,7.90
2022-11-16T03:27:27.510Z,7.90
2022-11-16T03:30:09.853Z,7.90
2022-11-16T03:33:19.584Z,7.90
2022-11-16T03:36:05.033Z,7.80
2022-11-16T03:38:37.660Z,7.80
2022-11-16T03:41:09.108Z,7.80
2022-11-16T03:43:38.963Z,7.80
2022-11-16T03:46:06.906Z,7.80
2022-11-16T03:48:39.839Z,7.80
2022-11-16T03:51:14.675Z,7.80
2022-11-16T03:53:42.667Z,7.80
2022-11-16T03:56:12.768Z,7.80
2022-11-16T03:58:39.618Z,7.80
2022-11-16T04:01:06.726Z,7.80
2022-11-16T04:03:34.685Z,7.80
2022-11-16T04:06:23.183Z,7.80
2022-11-16T04:09:09.270Z,7.80
2022-11-16T04:11:57.126Z,7.80
2022-11-16T04:14:46.259Z,7.70
2022-11-16T04:17:36.568Z,7.80
2022-11-16T04:20:24.780Z,7.80
2022-11-16T04:23:17.658Z,7.80
2022-11-16T04:25:47.364Z,7.80
2022-11-16T04:28:21.509Z,7.80
2022-11-16T04:31:18.456Z,7.90
2022-11-16T04:34:11.215Z,7.90
2022-11-16T04:37:09.790Z,7.80
2022-11-16T04:39:37.852Z,7.90
2022-11-16T04:42:15.443Z,7.90
2022-11-16T04:45:04.344Z,8.00
2022-11-16T04:47:41.701Z,7.90
2022-11-16T04:50:10.485Z,8.00
2022-11-16T04:52:39.714Z,8.00
2022-11-16T04:55:12.469Z,8.00
2022-11-16T04:57:40.027Z,8.00
2022-11-16T05:00:08.892Z,8.10
2022-11-16T05:02:37.672Z,8.10
2022-11-16T05:05:06.502Z,8.10
2022-11-16T05:07:34.947Z,8.10
2022-11-16T05:10:09.073Z,8.10
2022-11-16T05:12:37.177Z,8.10
2022-11-16T05:15:08.036Z,8.10
2022-11-16T05:17:36.071Z,8.10
2022-11-16T05:20:25.740Z,8.10
2022-11-16T05:23:00.135Z,8.20
2022-11-16T05:25:37.277Z,8.20
2022-11-16T05:28:07.693Z,8.20
2022-11-16T05:30:39.712Z,8.20
2022-11-16T05:33:06.698Z,8.20
2022-11-16T05:35:38.720Z,8.20
2022-11-16T05:38:06.685Z,8.30
2022-11-16T05:40:38.681Z,8.30
2022-11-16T05:43:06.931Z,8.30
2022-11-16T05:45:39.678Z,8.30
2022-11-16T05:48:08.806Z,8.30
2022-11-16T05:50:42.321Z,8.20
2022-11-16T05:53:20.787Z,8.30
2022-11-16T05:55:48.896Z,8.30
2022-11-16T05:58:16.652Z,8.30
2022-11-16T06:00:47.120Z,8.30
2022-11-16T06:03:15.781Z,8.30
2022-11-16T06:05:43.074Z,8.30
2022-11-16T06:08:13.715Z,8.30
2022-11-16T06:10:41.852Z,8.30
2022-11-16T06:13:10.343Z,8.30
2022-11-16T06:15:39.701Z,8.30
2022-11-16T06:18:09.305Z,8.30
2022-11-16T06:20:40.987Z,8.40
2022-11-16T06:23:08.696Z,8.40
2022-11-16T06:25:39.354Z,8.40
2022-11-16T06:28:08.501Z,8.40
2022-11-16T06:30:38.271Z,8.40
2022-11-16T06:33:07.264Z,8.30
2022-11-16T06:35:35.079Z,8.40
2022-11-16T06:38:06.067Z,8.40
2022-11-16T06:40:35.705Z,8.40
2022-11-16T06:43:06.978Z,8.30
2022-11-16T06:45:35.803Z,8.30
2022-11-16T06:48:04.844Z,8.30
2022-11-16T06:50:32.782Z,8.30
2022-11-16T06:53:01.053Z,8.30
2022-11-16T06:55:32.568Z,8.30
2022-11-16T06:58:01.382Z,8.30
2022-11-16T07:00:32.698Z,8.40
2022-11-16T07:03:04.897Z,8.30
2022-11-16T07:05:33.454Z,8.40
2022-11-16T07:08:01.018Z,8.40
2022-11-16T07:10:30.311Z,8.40
2022-11-16T07:13:04.451Z,8.50
2022-11-16T07:15:33.229Z,8.50
2022-11-16T07:18:08.090Z,8.40
2022-11-16T07:20:39.195Z,8.50
2022-11-16T07:23:12.892Z,8.50
2022-11-16T07:25:46.783Z,8.50
2022-11-16T07:28:18.268Z,8.60
2022-11-16T07:30:47.277Z,8.60
2022-11-16T07:33:22.811Z,8.60
2022-11-16T07:36:14.981Z,8.60
2022-11-16T07:38:46.937Z,8.60
2022-11-16T07:41:21.254Z,8.70
2022-11-16T07:43:57.087Z,8.70
2022-11-16T07:46:48.432Z,8.70
2022-11-16T07:49:19.803Z,8.70
2022-11-16T07:52:00.825Z,8.80
2022-11-16T07:54:46.492Z,8.80
2022-11-16T07:57:15.206Z,8.90
2022-11-16T07:59:44.261Z,8.90
2022-11-16T08:02:13.262Z,9.00
2022-11-16T08:04:43.278Z,9.10
2022-11-16T08:07:11.487Z,9.10
2022-11-16T08:09:47.157Z,9.10
2022-11-16T08:12:16.860Z,9.10
2022-11-16T08:14:44.847Z,9.10
2022-11-16T08:17:14.124Z,9.10
2022-11-16T08:19:42.393Z,9.10
2022-11-16T08:22:13.871Z,9.10
2022-11-16T08:24:43.257Z,9.10
2022-11-16T08:27:10.922Z,9.10
2022-11-16T08:29:39.667Z,9.10
2022-11-16T08:32:09.797Z,9.10
2022-11-16T08:34:37.833Z,9.10
2022-11-16T08:37:07.571Z,9.10
2022-11-16T08:39:42.817Z,9.10
2022-11-16T08:42:10.820Z,9.20
2022-11-16T08:44:42.322Z,9.20
2022-11-16T08:47:13.863Z,9.20
2022-11-16T08:49:49.720Z,9.20
2022-11-16T08:52:18.877Z,9.30
2022-11-16T08:54:47.286Z,9.30
2022-11-16T08:57:14.329Z,9.30
2022-11-16T08:59:43.842Z,9.40
2022-11-16T09:02:13.997Z,9.40
2022-11-16T09:04:42.355Z,9.40
2022-11-16T09:07:10.804Z,9.50
2022-11-16T09:09:37.839Z,9.50
2022-11-16T09:12:05.058Z,9.50
2022-11-16T09:14:33.057Z,9.60
2022-11-16T09:17:04.692Z,9.70
2022-11-16T09:19:31.800Z,9.80
2022-11-16T09:21:59.987Z,9.70
2022-11-16T09:24:27.305Z,9.70
2022-11-16T09:26:56.789Z,9.70
2022-11-16T09:29:23.807Z,9.70
2022-11-16T09:31:51.847Z,9.70
2022-11-16T09:34:18.850Z,9.70
2022-11-16T09:36:46.875Z,9.80
2022-11-16T09:39:30.118Z,9.80
2022-11-16T09:42:25.108Z,9.80
2022-11-16T09:44:52.757Z,10.00
2022-11-16T09:47:44.357Z,10.30
2022-11-16T09:50:26.427Z,10.40
2022-11-16T09:52:59.738Z,10.50
2022-11-16T09:55:36.315Z,10.50
2022-11-16T09:58:13.007Z,10.40
2022-11-16T10:00:47.170Z,10.30
2022-11-16T10:03:15.793Z,10.30
2022-11-16T10:05:59.118Z,10.40
2022-11-16T10:08:40.050Z,10.40
2022-11-16T10:11:42.718Z,10.30
2022-11-16T10:14:36.346Z,10.30
2022-11-16T10:17:13.024Z,10.30
2022-11-16T10:20:17.163Z,10.40
2022-11-16T10:22:51.124Z,10.40
2022-11-16T10:25:32.913Z,10.50
2022-11-16T10:28:23.954Z,10.60
2022-11-16T10:31:28.933Z,10.70
2022-11-16T10:33:58.995Z,10.90
2022-11-16T10:36:30.456Z,11.00
2022-11-16T10:39:01.006Z,11.10
2022-11-16T10:41:45.082Z,11.10
2022-11-16T10:44:50.153Z,11.20
2022-11-16T10:47:25.357Z,11.20
2022-11-16T10:50:22.940Z,11.20
2022-11-16T10:52:49.933Z,11.20
2022-11-16T10:55:17.581Z,11.10
2022-11-16T10:57:57.039Z,11.00
2022-11-16T11:00:39.150Z,11.10
2022-11-16T11:03:07.392Z,11.20
2022-11-16T11:05:36.748Z,11.40
2022-11-16T11:08:10.338Z,11.50
2022-11-16T11:10:42.100Z,11.50
2022-11-16T11:13:12.375Z,11.70
2022-11-16T11:15:42.655Z,11.80
2022-11-16T11:18:13.534Z,11.70
2022-11-16T11:20:45.180Z,11.80
2022-11-16T11:23:22.309Z,11.80
2022-11-16T11:25:53.714Z,11.80
2022-11-16T11:28:36.024Z,12.10
2022-11-16T11:31:07.608Z,12.40
2022-11-16T11:33:36.839Z,12.60
2022-11-16T11:36:40.743Z,12.80
2022-11-16T11:39:28.218Z,12.70
2022-11-16T11:42:13.066Z,13.00
2022-11-16T11:44:49.702Z,13.00
2022-11-16T11:50:26.969Z,12.60
2022-11-16T11:53:08.058Z,12.40
2022-11-16T11:55:35.188Z,12.10
2022-11-16T11:58:05.895Z,12.00
2022-11-16T12:00:56.123Z,12.20
2022-11-16T12:03:35.062Z,12.20
2022-11-16T12:06:11.876Z,12.90
2022-11-16T12:08:56.209Z,12.80
2022-11-16T12:11:29.860Z,12.50
2022-11-16T12:14:17.121Z,12.30
2022-11-16T12:17:03.405Z,12.20
2022-11-16T12:19:59.355Z,12.20
2022-11-16T12:22:49.744Z,12.40
2022-11-16T12:25:45.736Z,12.50
2022-11-16T12:28:37.529Z,12.40
2022-11-16T12:31:31.207Z,12.30
2022-11-16T12:34:10.114Z,11.90
2022-11-16T12:37:00.917Z,11.70
2022-11-16T12:39:53.801Z,11.60
2022-11-16T12:42:50.454Z,11.90
2022-11-16T12:45:44.718Z,11.90
2022-11-16T12:48:35.108Z,11.70
2022-11-16T12:51:31.929Z,11.50
2022-11-16T12:54:26.756Z,11.40
2022-11-16T12:56:59.004Z,11.40
2022-11-16T12:59:59.748Z,11.30
2022-11-16T13:02:51.641Z,11.30
2022-11-16T13:05:39.521Z,11.30
2022-11-16T13:08:35.421Z,11.30
2022-11-16T13:11:25.549Z,11.50
2022-11-16T13:14:00.422Z,11.60
2022-11-16T13:16:29.515Z,11.80
2022-11-16T13:19:00.685Z,11.80
2022-11-16T13:21:28.879Z,11.80
2022-11-16T13:24:14.489Z,11.90
2022-11-16T13:27:07.227Z,12.00
2022-11-16T13:30:16.070Z,12.10
2022-11-16T13:33:17.960Z,12.10
2022-11-16T13:35:45.884Z,13.10
2022-11-16T13:38:54.296Z,15.00
2022-11-16T13:41:42.023Z,16.20
2022-11-16T13:44:22.802Z,17.50
2022-11-16T13:47:28.129Z,18.40
2022-11-16T13:50:03.478Z,18.90
2022-11-16T13:55:46.162Z,19.40
2022-11-16T13:58:21.411Z,18.00
2022-11-16T14:01:08.870Z,17.20
2022-11-16T14:03:51.490Z,17.40
2022-11-16T14:06:25.465Z,16.90
2022-11-16T14:08:59.269Z,16.50
2022-11-16T14:11:38.743Z,16.20
2022-11-16T14:14:13.611Z,15.50
2022-11-16T14:16:51.484Z,15.40
2022-11-16T14:19:47.668Z,15.20
2022-11-16T14:22:21.193Z,15.20
2022-11-16T14:25:07.478Z,15.10
2022-11-16T14:27:50.235Z,14.90
2022-11-16T14:30:24.574Z,14.30
2022-11-16T14:32:55.490Z,13.50
2022-11-16T14:35:38.141Z,13.00
2022-11-16T14:38:08.248Z,12.40
2022-11-16T14:40:45.889Z,11.80
2022-11-16T14:43:29.989Z,11.40
2022-11-16T14:46:05.931Z,11.00
2022-11-16T14:48:33.906Z,10.60
2022-11-16T14:51:11.479Z,10.40
2022-11-16T14:53:45.806Z,10.20
2022-11-16T14:56:16.632Z,10.00
2022-11-16T14:58:58.850Z,9.90
2022-11-16T15:01:39.598Z,9.80
2022-11-16T15:04:10.104Z,9.70
2022-11-16T15:07:02.646Z,9.60
2022-11-16T15:09:36.194Z,9.50
2022-11-16T15:12:24.701Z,9.40
2022-11-16T15:14:54.837Z,9.40
2022-11-16T15:17:31.827Z,9.30
2022-11-16T15:20:03.279Z,9.20
2022-11-16T15:22:39.745Z,9.00
2022-11-16T15:25:27.750Z,8.90
2022-11-16T15:27:59.452Z,8.70
2022-11-16T15:30:34.110Z,8.60
2022-11-16T15:33:26.814Z,8.50
2022-11-16T15:35:55.620Z,8.30
2022-11-16T15:38:31.089Z,8.20
2022-11-16T15:41:00.941Z,8.20
2022-11-16T15:44:01.529Z,8.10
2022-11-16T15:46:32.967Z,8.00
2022-11-16T15:49:03.473Z,7.90
2022-11-16T15:51:31.280Z,7.90
2022-11-16T15:54:53.666Z,7.80
2022-11-16T15:57:22.871Z,7.70
2022-11-16T15:59:59.928Z,7.60
2022-11-16T16:02:30.113Z,7.50
2022-11-16T16:04:57.026Z,7.40
2022-11-16T16:07:36.768Z,7.30
2022-11-16T16:10:25.196Z,7.20
2022-11-16T16:12:54.309Z,7.20
2022-11-16T16:15:30.019Z,7.10
2022-11-16T16:17:58.882Z,7.10
2022-11-16T16:20:29.714Z,7.00
2022-11-16T16:23:08.815Z,6.90
2022-11-16T16:25:37.062Z,6.90
2022-11-16T16:28:04.300Z,6.70
2022-11-16T16:30:34.611Z,6.50
2022-11-16T16:33:03.998Z,6.20
2022-11-16T16:35:32.037Z,6.00
2022-11-16T16:38:02.790Z,5.90
2022-11-16T16:40:30.095Z,5.70
2022-11-16T16:42:58.608Z,5.70
2022-11-16T16:45:33.068Z,5.70
2022-11-16T16:48:03.012Z,5.70
2022-11-16T16:50:30.181Z,5.50
2022-11-16T16:52:58.319Z,5.50
2022-11-16T16:55:25.350Z,5.40
2022-11-16T16:57:58.129Z,5.30
2022-11-16T17:00:25.902Z,5.20
2022-11-16T17:02:54.338Z,5.10
2022-11-16T17:05:21.216Z,5.00
2022-11-16T17:07:49.222Z,5.00
2022-11-16T17:10:17.561Z,4.90
2022-11-16T17:12:45.909Z,4.70
2022-11-16T17:15:19.018Z,4.70
2022-11-16T17:17:47.686Z,4.70
2022-11-16T17:20:16.287Z,4.60
2022-11-16T17:22:44.476Z,4.60
2022-11-16T17:25:12.371Z,4.50
2022-11-16T17:27:40.470Z,4.50
2022-11-16T17:30:10.716Z,4.30
2022-11-16T17:32:38.078Z,4.30
2022-11-16T17:35:06.329Z,4.30
2022-11-16T17:37:34.492Z,4.10
2022-11-16T17:40:04.403Z,4.00
2022-11-16T17:42:35.522Z,3.90
2022-11-16T17:45:04.033Z,4.00
2022-11-16T17:47:33.432Z,4.10
2022-11-16T17:50:02.640Z,4.20
2022-11-16T17:52:30.481Z,4.10
2022-11-16T17:54:58.140Z,4.00
2022-11-16T17:57:24.950Z,4.00
2022-11-16T17:59:53.251Z,4.00
2022-11-16T18:02:21.153Z,4.00
2022-11-16T18:04:51.090Z,4.00
2022-11-16T18:07:19.638Z,4.00
2022-11-16T18:09:47.835Z,4.10
2022-11-16T18:12:15.100Z,4.10
2022-11-16T18:14:59.886Z,4.20
2022-11-16T18:17:31.296Z,4.10
2022-11-16T18:19:59.148Z,4.00
2022-11-16T18:22:26.191Z,3.90
2022-11-16T18:24:54.099Z,3.80
2022-11-16T18:27:21.342Z,3.80
2022-11-16T18:29:49.920Z,3.70
2022-11-16T18:32:17.291Z,3.70
2022-11-16T18:34:45.490Z,3.70
2022-11-16T18:37:13.210Z,3.60
2022-11-16T18:39:41.294Z,3.60
2022-11-16T18:42:10.217Z,3.60
2022-11-16T18:44:38.221Z,3.60
2022-11-16T18:47:05.433Z,3.60
2022-11-16T18:49:33.905Z,3.70
2022-11-16T18:52:02.341Z,3.60
2022-11-16T18:54:30.408Z,3.60
2022-11-16T18:56:57.311Z,3.70
2022-11-16T18:59:25.621Z,3.90
2022-11-16T19:01:53.776Z,3.90
2022-11-16T19:04:21.131Z,3.80
2022-11-16T19:06:49.277Z,3.80
2022-11-16T19:09:17.122Z,3.80
2022-11-16T19:11:45.199Z,3.80
2022-11-16T19:14:13.452Z,3.70
2022-11-16T19:16:48.249Z,3.80
2022-11-16T19:19:18.229Z,3.90
2022-11-16T19:21:46.238Z,3.90
2022-11-16T19:24:13.323Z,3.80
2022-11-16T19:26:41.490Z,3.70
2022-11-16T19:29:09.379Z,3.60
2022-11-16T19:31:37.141Z,3.60
2022-11-16T19:34:08.002Z,3.60
2022-11-16T19:36:36.701Z,3.70
2022-11-16T19:39:05.464Z,3.60
2022-11-16T19:41:33.358Z,3.50
2022-11-16T19:44:01.645Z,3.40
2022-11-16T19:46:32.046Z,3.20
2022-11-16T19:49:00.031Z,3.10
2022-11-16T19:51:31.646Z,3.00
2022-11-16T19:54:00.925Z,3.00
2022-11-16T19:56:29.808Z,3.00
2022-11-16T19:58:57.254Z,2.90
2022-11-16T20:01:29.451Z,2.90
2022-11-16T20:03:59.643Z,2.90
2022-11-16T20:06:29.702Z,2.90
2022-11-16T20:09:03.426Z,2.90
2022-11-16T20:11:36.518Z,2.90
2022-11-16T20:14:08.835Z,2.80
2022-11-16T20:16:39.779Z,2.80
2022-11-16T20:19:10.088Z,2.70
2022-11-16T20:21:43.084Z,2.70
2022-11-16T20:24:16.502Z,2.70
2022-11-16T20:26:48.233Z,2.70
2022-11-16T20:29:18.344Z,2.70
2022-11-16T20:31:47.055Z,2.60
2022-11-16T20:34:20.232Z,2.60
2022-11-16T20:36:50.778Z,2.60
2022-11-16T20:39:21.178Z,2.60
2022-11-16T20:41:49.780Z,2.50
2022-11-16T20:44:21.163Z,2.40
2022-11-16T20:46:52.312Z,2.40
2022-11-16T20:49:22.515Z,2.50
2022-11-16T20:51:51.295Z,2.60
2022-11-16T20:54:19.283Z,2.70
2022-11-16T20:56:48.090Z,2.70
2022-11-16T20:59:16.562Z,2.70
2022-11-16T21:01:47.834Z,2.70
2022-11-16T21:04:15.612Z,2.60
2022-11-16T21:06:44.017Z,2.50
2022-11-16T21:09:12.766Z,2.40
2022-11-16T21:12:00.540Z,2.30
2022-11-16T21:14:29.872Z,2.20
2022-11-16T21:16:58.387Z,2.20
2022-11-16T21:19:26.495Z,2.20
2022-11-16T21:21:54.279Z,2.10
2022-11-16T21:24:24.681Z,2.20
2022-11-16T21:26:53.391Z,2.30
2022-11-16T21:29:25.816Z,2.40
2022-11-16T21:31:53.810Z,2.60
2022-11-16T21:34:21.310Z,2.70
2022-11-16T21:36:49.627Z,2.60
2022-11-16T21:40:02.735Z,2.60
2022-11-16T21:42:37.434Z,2.40
2022-11-16T21:45:05.533Z,2.40
2022-11-16T21:47:33.635Z,2.40
2022-11-16T21:52:51.284Z,2.40
2022-11-16T21:55:20.770Z,2.30
2022-11-16T21:57:49.742Z,2.30
2022-11-16T22:00:19.273Z,2.20
2022-11-16T22:02:47.544Z,2.20
2022-11-16T22:05:34.699Z,2.20
2022-11-16T22:08:16.590Z,2.30
2022-11-16T22:11:04.259Z,2.20
2022-11-16T22:13:32.971Z,2.10
2022-11-16T22:16:05.890Z,2.10
2022-11-16T22:18:34.583Z,2.10
2022-11-16T22:21:03.880Z,2.10
2022-11-16T22:23:32.913Z,2.10
2022-11-16T22:26:11.317Z,2.00
2022-11-16T22:28:41.506Z,1.90
2022-11-16T22:31:13.397Z,1.90
2022-11-16T22:33:43.294Z,1.80
2022-11-16T22:36:11.605Z,1.80
2022-11-16T22:38:39.979Z,1.90
2022-11-16T22:41:07.998Z,1.90
2022-11-16T22:43:37.421Z,1.90
2022-11-16T22:46:06.515Z,1.90
2022-11-16T22:48:39.516Z,2.00
2022-11-16T22:51:23.496Z,2.00
2022-11-16T22:53:59.786Z,2.10
2022-11-16T22:56:30.071Z,2.20
2022-11-16T22:58:58.632Z,2.30
2022-11-16T23:01:30.691Z,2.30
2022-11-16T23:03:58.815Z,2.40
2022-11-16T23:06:28.749Z,2.40
2022-11-16T23:09:10.817Z,2.30
2022-11-16T23:12:04.077Z,2.30
2022-11-16T23:14:53.806Z,2.40
2022-11-16T23:17:22.132Z,2.30
2022-11-16T23:20:17.974Z,2.30
2022-11-16T23:23:06.165Z,2.20
2022-11-16T23:25:55.461Z,2.20
2022-11-16T23:28:23.720Z,2.20
2022-11-16T23:30:51.928Z,2.20
2022-11-16T23:33:39.960Z,2.20
2022-11-16T23:36:08.461Z,2.20
2022-11-16T23:38:43.028Z,2.40
2022-11-16T23:41:29.476Z,2.40
2022-11-16T23:44:00.308Z,2.50
2022-11-16T23:46:40.813Z,2.50
2022-11-16T23:49:16.456Z,2.70
2022-11-16T23:51:44.615Z,2.80
2022-11-16T23:54:12.493Z,2.80
2022-11-16T23:56:40.523Z,2.80
2022-11-16T23:59:08.367Z,2.90
